Time;durP1;ratioP1;P1;durP2;ratioP2;P2;SDS_P1;SDS_P2;PMS_P1;PMS_P2;Temp;Humidity;BMP_temperature;BMP_pressure;BME280_temperature;BME280_humidity;BME280_pressure;Samples;Min_cycle;Max_cycle;Signal;HPM_P1;HPM_P2
2021/01/08 00:02:26;;;;;;;8.46;5.74;;;;;;;1.19;85.49;99102.56;2315353;66;24437;-72
2021/01/08 00:05:28;;;;;;;8.91;5.43;;;;;;;1.18;85.55;99099.16;2316349;69;20304;-73
2021/01/08 00:08:30;;;;;;;9.50;5.65;;;;;;;1.20;85.63;99099.19;2316856;68;20332;-73
2021/01/08 00:11:35;;;;;;;9.09;5.79;;;;;;;1.21;85.71;99101.78;2316323;69;20329;-73
2021/01/08 00:14:36;;;;;;;10.45;6.05;;;;;;;1.19;85.79;99100.88;2315955;69;20217;-72
2021/01/08 00:17:38;;;;;;;10.04;5.99;;;;;;;1.19;85.69;99103.44;2316554;66;20304;-73
2021/01/08 00:20:40;;;;;;;8.73;5.13;;;;;;;1.20;85.81;99105.16;2316592;69;20283;-73
2021/01/08 00:23:42;;;;;;;8.29;5.56;;;;;;;1.19;85.70;99106.00;2317067;69;20310;-73
2021/01/08 00:26:43;;;;;;;9.33;5.79;;;;;;;1.19;85.66;99098.31;2316740;69;20619;-72
2021/01/08 00:29:46;;;;;;;8.74;5.75;;;;;;;1.21;85.76;99088.13;2317794;69;20623;-73
2021/01/08 00:32:52;;;;;;;7.92;5.50;;;;;;;1.21;85.75;99101.78;2311027;66;23925;-83
2021/01/08 00:35:54;;;;;;;9.43;6.14;;;;;;;1.18;85.91;99099.16;2310200;69;20163;-82
2021/01/08 00:38:57;;;;;;;10.30;6.47;;;;;;;1.19;86.13;99094.91;2318957;69;20392;-82
2021/01/08 00:42:01;;;;;;;12.10;6.57;;;;;;;1.19;86.20;99094.91;2319986;69;20430;-82
2021/01/08 00:45:05;;;;;;;8.65;5.75;;;;;;;1.19;86.32;99094.91;2317439;69;20318;-81
2021/01/08 00:48:07;;;;;;;10.86;6.13;;;;;;;1.16;86.36;99090.56;2313999;66;154829;-81
2021/01/08 00:51:09;;;;;;;8.68;5.36;;;;;;;1.16;86.39;99087.16;2318344;69;20287;-82
2021/01/08 00:54:12;;;;;;;7.61;5.41;;;;;;;1.17;86.40;99083.78;2316841;69;20424;-81
2021/01/08 00:57:15;;;;;;;9.54;6.00;;;;;;;1.17;86.33;99084.63;2315176;69;20286;-82
2021/01/08 01:00:17;;;;;;;7.74;5.39;;;;;;;1.16;86.46;99090.56;2313750;66;248665;-81
2021/01/08 01:03:19;;;;;;;8.52;5.27;;;;;;;1.16;86.32;99090.56;2320325;69;20294;-81
2021/01/08 01:06:29;;;;;;;6.76;4.91;;;;;;;1.14;86.46;99094.78;2318322;69;20177;-82
2021/01/08 01:09:31;;;;;;;9.29;4.96;;;;;;;1.16;86.46;99094.81;2318934;69;20164;-82
2021/01/08 01:12:33;;;;;;;6.14;4.49;;;;;;;1.18;86.43;99093.16;2317852;69;20302;-82
2021/01/08 01:15:35;;;;;;;7.03;4.98;;;;;;;1.13;86.26;99090.50;2318824;66;188506;-82
2021/01/08 01:18:37;;;;;;;6.24;4.19;;;;;;;1.14;86.38;99091.34;2314791;69;20145;-82
2021/01/08 01:21:41;;;;;;;5.85;4.34;;;;;;;1.15;86.34;99098.19;2318201;69;20314;-83
2021/01/08 01:24:44;;;;;;;6.20;4.51;;;;;;;1.17;86.35;99094.84;2317993;69;20335;-81
2021/01/08 01:27:46;;;;;;;7.76;4.57;;;;;;;1.17;86.36;99101.66;2315709;69;20311;-82
2021/01/08 01:30:48;;;;;;;6.31;3.81;;;;;;;1.17;86.50;99097.41;2310827;66;205254;-82
2021/01/08 01:33:50;;;;;;;6.84;4.07;;;;;;;1.20;86.37;99106.84;2315711;69;20182;-82
2021/01/08 01:36:52;;;;;;;5.80;3.99;;;;;;;1.19;86.29;99100.88;2319303;69;20335;-81
2021/01/08 01:39:54;;;;;;;6.15;4.31;;;;;;;1.21;86.29;99099.22;2317982;69;20286;-81
2021/01/08 01:42:56;;;;;;;6.41;4.61;;;;;;;1.19;86.11;99103.44;2317475;69;20315;-81
2021/01/08 01:45:59;;;;;;;4.61;3.97;;;;;;;1.18;86.28;99106.81;2318353;66;166684;-81
2021/01/08 01:49:01;;;;;;;6.94;3.79;;;;;;;1.20;86.28;99107.72;2314969;69;20314;-81
2021/01/08 01:52:03;;;;;;;5.89;3.88;;;;;;;1.19;86.17;99116.22;2314825;69;20153;-80
2021/01/08 01:55:07;;;;;;;4.90;3.51;;;;;;;1.19;86.20;99117.91;2316761;69;20315;-81
2021/01/08 01:58:09;;;;;;;5.50;3.44;;;;;;;1.18;86.29;99114.50;2316948;69;20291;-81
2021/01/08 02:01:11;;;;;;;5.18;3.91;;;;;;;1.19;86.30;99118.78;2313228;66;218800;-82
2021/01/08 02:04:14;;;;;;;6.16;4.20;;;;;;;1.19;86.45;99118.78;2313940;69;20310;-80
2021/01/08 02:07:17;;;;;;;4.26;3.59;;;;;;;1.17;86.43;99111.91;2318610;69;20323;-81
2021/01/08 02:10:23;;;;;;;4.69;3.53;;;;;;;1.16;86.43;99115.28;2319882;69;20210;-81
2021/01/08 02:16:54;;;;;;;5.34;3.33;;;;;;;1.16;86.44;99120.38;2320271;66;205887;-82
2021/01/08 02:20:05;;;;;;;5.28;3.69;;;;;;;1.14;86.49;99129.72;2324675;69;20168;-80
2021/01/08 02:23:16;;;;;;;3.80;3.25;;;;;;;1.14;86.40;99127.16;2325955;69;20272;-81
2021/01/08 02:26:19;;;;;;;4.84;3.47;;;;;;;1.13;86.42;99123.72;2328376;69;20300;-81
2021/01/08 02:29:22;;;;;;;3.81;3.38;;;;;;;1.13;86.49;99123.72;2329605;69;20288;-79
2021/01/08 02:32:25;;;;;;;4.47;3.57;;;;;;;1.12;86.58;99127.13;2327106;66;185394;-81
2021/01/08 02:35:28;;;;;;;5.20;3.62;;;;;;;1.12;86.61;99116.03;2329953;69;20214;-79
2021/01/08 02:38:31;;;;;;;5.75;3.24;;;;;;;1.14;86.61;99122.03;2328730;69;20171;-81
2021/01/08 02:41:36;;;;;;;5.97;3.06;;;;;;;1.12;86.67;99122.00;2331633;69;20320;-82
2021/01/08 02:44:38;;;;;;;4.01;3.61;;;;;;;1.11;86.77;99122.81;2330032;69;20406;-81
2021/01/08 02:47:40;;;;;;;4.48;3.21;;;;;;;1.10;86.85;99123.66;2326407;66;165157;-82
2021/01/08 02:50:43;;;;;;;3.84;2.97;;;;;;;1.06;86.67;99116.69;2328657;68;20191;-81
2021/01/08 02:57:05;;;;;;;3.18;2.64;;;;;;;1.10;86.97;99125.34;2310638;69;20329;-79
2021/01/08 03:00:09;;;;;;;3.88;3.24;;;;;;;1.10;86.81;99123.66;2313744;69;20197;-80
2021/01/08 03:03:11;;;;;;;3.24;2.94;;;;;;;1.10;86.90;99126.22;2313909;66;30527;-80
2021/01/08 03:06:15;;;;;;;3.83;3.40;;;;;;;1.11;86.87;99124.50;2320833;69;20201;-80
2021/01/08 03:09:16;;;;;;;4.01;3.13;;;;;;;1.13;86.93;99130.53;2323855;69;20334;-80
2021/01/08 03:12:18;;;;;;;3.35;3.05;;;;;;;1.12;86.82;99127.13;2326412;69;20200;-80
2021/01/08 03:15:20;;;;;;;3.75;3.39;;;;;;;1.12;86.90;99118.56;2325199;66;27686;-80
2021/01/08 03:18:22;;;;;;;4.40;3.19;;;;;;;1.13;86.87;99126.28;2324343;69;20292;-80
2021/01/08 03:21:24;;;;;;;3.38;2.83;;;;;;;1.13;86.85;99113.50;2326251;69;20284;-81
2021/01/08 03:24:25;;;;;;;3.30;2.95;;;;;;;1.14;86.82;99109.25;2325257;69;20331;-80
2021/01/08 03:27:27;;;;;;;3.11;2.81;;;;;;;1.13;86.88;99115.19;2330009;69;20310;-80
2021/01/08 03:30:29;;;;;;;4.07;3.08;;;;;;;1.11;86.83;99114.28;2327256;66;21751;-81
2021/01/08 03:33:30;;;;;;;4.21;2.96;;;;;;;1.12;86.81;99116.88;2327952;69;20171;-80
2021/01/08 03:36:32;;;;;;;2.91;2.71;;;;;;;1.13;86.78;99107.53;2327702;69;20344;-80
2021/01/08 03:39:33;;;;;;;4.37;3.03;;;;;;;1.12;86.80;99116.88;2327265;69;20152;-80
2021/01/08 03:42:35;;;;;;;2.96;2.66;;;;;;;1.13;86.75;99122.88;2327059;69;20185;-81
2021/01/08 03:45:37;;;;;;;2.84;2.61;;;;;;;1.14;86.67;99122.91;2327299;67;23175;-80
2021/01/08 03:48:40;;;;;;;3.16;2.96;;;;;;;1.14;86.69;99124.59;2326232;69;20330;-80
2021/01/08 03:51:42;;;;;;;3.34;2.96;;;;;;;1.15;86.66;99127.19;2327431;69;20398;-80
2021/01/08 03:54:44;;;;;;;3.50;3.19;;;;;;;1.14;86.76;99130.56;2326061;69;20175;-80
2021/01/08 03:57:46;;;;;;;3.65;3.09;;;;;;;1.15;86.76;99127.19;2325810;69;20300;-80
2021/01/08 04:00:47;;;;;;;3.22;2.92;;;;;;;1.15;86.65;99132.31;2322455;67;20334;-79
2021/01/08 04:03:49;;;;;;;3.92;3.16;;;;;;;1.12;86.62;99121.13;2324305;69;20917;-81
2021/01/08 04:06:51;;;;;;;4.02;3.01;;;;;;;1.12;86.67;99131.34;2325268;69;20291;-80
2021/01/08 04:09:53;;;;;;;3.13;2.84;;;;;;;1.12;86.52;99129.66;2327387;69;20569;-82
2021/01/08 04:12:54;;;;;;;3.66;3.28;;;;;;;1.10;86.50;99127.91;2327405;69;20589;-81
2021/01/08 04:15:56;;;;;;;4.26;3.47;;;;;;;1.07;86.54;99120.97;2325842;66;20761;-81
2021/01/08 04:18:57;;;;;;;3.95;3.38;;;;;;;1.05;86.29;99124.31;2327628;69;20288;-81
2021/01/08 04:21:59;;;;;;;3.30;3.00;;;;;;;1.02;86.41;99117.44;2326026;69;20313;-81
2021/01/08 04:25:02;;;;;;;4.75;3.59;;;;;;;1.01;86.35;99118.25;2324914;69;20307;-80
2021/01/08 04:28:04;;;;;;;3.99;3.20;;;;;;;0.98;86.33;99123.28;2325331;69;20288;-79
2021/01/08 04:31:06;;;;;;;6.05;3.38;;;;;;;0.99;86.30;99124.16;2325632;66;20836;-80
2021/01/08 04:34:08;;;;;;;3.48;3.18;;;;;;;0.98;86.39;99118.16;2321790;69;20296;-80
2021/01/08 04:37:09;;;;;;;4.22;3.60;;;;;;;0.96;86.39;99114.72;2323217;69;20144;-80
2021/01/08 04:40:12;;;;;;;3.03;2.74;;;;;;;0.95;86.35;99110.41;2322186;69;20304;-80
2021/01/08 04:43:14;;;;;;;3.76;2.86;;;;;;;0.94;86.27;99121.47;2320620;68;20164;-79
2021/01/08 04:46:21;;;;;;;4.84;3.70;;;;;;;0.90;86.22;99115.41;2318422;67;21253;-79
2021/01/08 04:49:23;;;;;;;3.24;2.91;;;;;;;0.88;86.20;99122.13;2319570;69;20169;-79
2021/01/08 04:52:26;;;;;;;5.20;3.90;;;;;;;0.85;86.21;99121.19;2319943;69;20457;-79
2021/01/08 04:55:28;;;;;;;4.71;3.44;;;;;;;0.80;86.10;99120.19;2318874;69;21297;-80
2021/01/08 04:58:32;;;;;;;5.63;3.68;;;;;;;0.73;85.83;99120.84;2319982;69;20618;-79
2021/01/08 05:01:35;;;;;;;4.31;3.49;;;;;;;0.70;86.04;99121.59;2321459;67;20306;-80
2021/01/08 05:04:39;;;;;;;3.54;3.24;;;;;;;0.68;86.02;99114.69;2325227;69;20241;-80
2021/01/08 05:07:40;;;;;;;6.63;3.85;;;;;;;0.66;86.02;99122.31;2326474;69;20173;-80
2021/01/08 05:10:44;;;;;;;6.52;3.81;;;;;;;0.66;85.91;99131.66;2327483;69;20291;-80
2021/01/08 05:14:07;;;;;;;4.03;3.61;;;;;;;0.61;85.92;99144.31;2326299;69;20180;-80
2021/01/08 05:17:08;;;;;;;5.03;3.56;;;;;;;0.57;85.78;99145.03;2326180;67;24800;-80
2021/01/08 05:20:11;;;;;;;4.42;3.91;;;;;;;0.54;85.86;99137.28;2325594;69;20220;-80
2021/01/08 05:23:13;;;;;;;5.39;3.71;;;;;;;0.49;85.88;99137.13;2325149;69;20174;-80
2021/01/08 05:26:15;;;;;;;4.81;3.81;;;;;;;0.49;86.03;99126.03;2326346;69;20323;-81
2021/01/08 05:29:17;;;;;;;3.92;3.54;;;;;;;0.48;85.87;99140.50;2324256;69;20289;-80
2021/01/08 05:32:18;;;;;;;4.80;3.44;;;;;;;0.48;85.97;99137.94;2327288;66;20817;-80
2021/01/08 05:35:22;;;;;;;4.94;3.79;;;;;;;0.51;85.99;99144.84;2326973;69;20176;-80
2021/01/08 05:38:25;;;;;;;6.36;3.50;;;;;;;0.50;85.95;99146.53;2326248;69;20148;-78
2021/01/08 05:41:30;;;;;;;4.00;3.58;;;;;;;0.52;86.08;99151.66;2326452;69;20314;-80
2021/01/08 05:44:31;;;;;;;4.41;3.38;;;;;;;0.55;86.16;99154.34;2326627;69;20187;-80
2021/01/08 05:47:33;;;;;;;4.38;3.33;;;;;;;0.57;86.15;99147.59;2326711;67;25367;-82
2021/01/08 05:50:35;;;;;;;7.80;3.84;;;;;;;0.59;86.02;99143.41;2327433;69;20332;-81
2021/01/08 05:53:38;;;;;;;5.32;3.14;;;;;;;0.64;85.88;99151.19;2328296;69;20331;-80
2021/01/08 05:56:40;;;;;;;4.32;3.34;;;;;;;0.59;85.62;99151.94;2327028;69;20191;-81
2021/01/08 05:59:44;;;;;;;4.90;3.27;;;;;;;0.55;85.46;99149.25;2327084;69;20159;-81
2021/01/08 06:02:52;;;;;;;3.78;3.17;;;;;;;0.54;85.31;99148.38;2328420;66;20172;-82
2021/01/08 06:05:55;;;;;;;4.50;3.40;;;;;;;0.54;85.20;99144.97;2326131;69;20159;-81
2021/01/08 06:08:59;;;;;;;6.03;3.44;;;;;;;0.56;85.18;99145.88;2330232;69;20220;-80
2021/01/08 06:12:01;;;;;;;4.40;3.62;;;;;;;0.59;85.25;99145.97;2326759;69;20191;-81
2021/01/08 06:15:06;;;;;;;4.29;3.40;;;;;;;0.62;84.99;99143.50;2328317;69;20171;-80
2021/01/08 06:18:09;;;;;;;4.84;3.53;;;;;;;0.61;84.63;99151.97;2327344;67;20158;-80
2021/01/08 06:21:11;;;;;;;4.84;3.22;;;;;;;0.62;84.57;99155.41;2328852;69;20151;-81
2021/01/08 06:24:24;;;;;;;4.51;3.37;;;;;;;0.59;84.21;99163.84;2329283;69;20173;-81
2021/01/08 06:27:31;;;;;;;4.14;3.48;;;;;;;0.60;84.31;99170.69;2326983;69;20224;-80
2021/01/08 06:30:35;;;;;;;5.34;3.61;;;;;;;0.63;84.26;99167.34;2326008;67;21810;-81
2021/01/08 06:33:38;;;;;;;7.10;4.00;;;;;;;0.67;84.23;99161.50;2327631;69;20183;-81
2021/01/08 06:36:46;;;;;;;4.40;3.64;;;;;;;0.67;83.97;99164.94;2329730;69;20128;-81
2021/01/08 06:39:55;;;;;;;4.59;3.61;;;;;;;0.66;83.63;99170.84;2336653;69;20171;-78
2021/01/08 06:43:03;;;;;;;3.94;3.11;;;;;;;0.69;83.75;99175.19;2315978;69;21184;-78
2021/01/08 06:46:10;;;;;;;5.23;3.51;;;;;;;0.68;83.71;99173.47;2313933;66;20488;-80
2021/01/08 06:49:12;;;;;;;3.86;3.21;;;;;;;0.62;83.47;99170.72;2316248;69;20152;-77
2021/01/08 06:52:14;;;;;;;5.78;3.58;;;;;;;0.63;83.42;99178.44;2314862;69;20202;-77
2021/01/08 06:55:18;;;;;;;3.51;3.21;;;;;;;0.59;83.26;99181.72;2315812;69;20210;-77
2021/01/08 06:58:21;;;;;;;3.94;3.34;;;;;;;0.58;83.40;99183.41;2315468;69;20336;-79
2021/01/08 07:01:54;;;;;;;4.18;2.99;;;;;;;0.56;83.16;99185.06;2316606;67;22675;-78
2021/01/08 07:04:57;;;;;;;4.81;3.39;;;;;;;0.61;83.14;99180.06;2320420;69;20304;-79
2021/01/08 07:07:59;;;;;;;4.68;3.61;;;;;;;0.59;82.83;99191.94;2321235;69;20321;-82
2021/01/08 07:11:01;;;;;;;3.52;3.09;;;;;;;0.58;82.75;99196.19;2319467;68;20612;-71
2021/01/08 07:14:14;;;;;;;4.10;3.29;;;;;;;0.56;82.37;99199.50;2315640;69;20159;-71
2021/01/08 07:17:16;;;;;;;13.76;7.33;;;;;;;0.56;82.29;99208.03;2314586;67;20939;-71
2021/01/08 07:20:19;;;;;;;7.02;4.87;;;;;;;0.55;82.27;99208.84;2314817;69;20175;-73
2021/01/08 07:23:27;;;;;;;7.81;4.40;;;;;;;0.58;82.65;99213.19;2315152;69;20200;-74
2021/01/08 07:26:28;;;;;;;8.25;4.39;;;;;;;0.60;82.57;99222.63;2316885;69;20718;-74
2021/01/08 07:29:30;;;;;;;6.28;3.93;;;;;;;0.64;82.41;99223.59;2316022;69;20319;-72
2021/01/08 07:32:38;;;;;;;5.34;4.12;;;;;;;0.69;82.39;99227.16;2314274;66;20749;-73
2021/01/08 07:35:45;;;;;;;6.51;4.38;;;;;;;0.71;82.30;99224.66;2315195;69;20151;-73
2021/01/08 07:38:47;;;;;;;5.38;3.59;;;;;;;0.71;82.18;99222.09;2315151;69;20199;-73
2021/01/08 07:41:48;;;;;;;5.17;3.99;;;;;;;0.71;82.09;99220.41;2315175;69;20335;-73
2021/01/08 07:44:50;;;;;;;4.52;3.53;;;;;;;0.77;82.25;99228.28;2316151;69;20192;-73
2021/01/08 07:47:52;;;;;;;4.82;3.29;;;;;;;0.78;82.17;99230.03;2315344;66;21550;-73
2021/01/08 07:51:01;;;;;;;6.30;3.76;;;;;;;0.79;82.06;99233.44;2316881;69;20641;-72
2021/01/08 07:54:02;;;;;;;5.37;3.48;;;;;;;0.79;81.86;99236.00;2316599;68;20187;-74
2021/01/08 07:57:05;;;;;;;4.98;3.68;;;;;;;0.77;81.60;99246.19;2316723;69;20167;-73
2021/01/08 08:00:24;;;;;;;4.49;3.35;;;;;;;0.76;81.41;99246.13;2316298;69;21454;-73
2021/01/08 08:03:25;;;;;;;5.67;3.52;;;;;;;0.75;81.19;99244.41;2308512;69;20796;-72
2021/01/08 08:06:29;;;;;;;4.53;3.41;;;;;;;0.76;81.23;99246.13;2309996;69;20168;-72
2021/01/08 08:09:31;;;;;;;3.70;3.31;;;;;;;0.75;81.05;99252.06;2309809;69;20732;-73
2021/01/08 08:12:32;;;;;;;5.78;3.64;;;;;;;0.73;81.26;99259.69;2308868;69;20358;-72
2021/01/08 08:15:44;;;;;;;4.78;3.66;;;;;;;0.71;80.91;99266.41;2307951;66;21217;-72
2021/01/08 08:18:50;;;;;;;4.63;3.99;;;;;;;0.70;80.92;99266.34;2308661;69;20386;-72
2021/01/08 08:21:56;;;;;;;5.05;3.89;;;;;;;0.67;80.99;99276.47;2308599;69;20149;-72
2021/01/08 08:24:58;;;;;;;6.99;3.57;;;;;;;0.68;80.83;99278.22;2308255;69;20912;-72
2021/01/08 08:28:00;;;;;;;4.77;3.28;;;;;;;0.70;81.03;99277.44;2308332;69;20318;-72
2021/01/08 08:31:02;;;;;;;4.96;3.59;;;;;;;0.74;81.16;99286.09;2307370;66;21010;-72
2021/01/08 08:34:05;;;;;;;4.33;3.74;;;;;;;0.72;81.15;99286.06;2307671;69;20190;-72
2021/01/08 08:37:10;;;;;;;5.96;4.21;;;;;;;0.71;81.10;99288.53;2309315;69;20699;-72
2021/01/08 08:40:12;;;;;;;4.57;3.96;;;;;;;0.71;80.90;99281.72;2308062;69;20495;-72
2021/01/08 08:43:24;;;;;;;6.66;4.08;;;;;;;0.72;80.72;99296.28;2307959;69;20703;-72
2021/01/08 08:46:39;;;;;;;6.55;4.28;;;;;;;0.74;81.00;99297.19;2307526;66;20750;-73
2021/01/08 08:49:44;;;;;;;6.08;3.68;;;;;;;0.78;80.89;99298.16;2309076;69;20311;-73
2021/01/08 08:52:46;;;;;;;5.16;3.82;;;;;;;0.81;80.85;99298.25;2307967;69;20188;-73
2021/01/08 08:55:49;;;;;;;5.14;3.94;;;;;;;0.84;80.47;99301.75;2308775;69;20181;-73
2021/01/08 08:58:51;;;;;;;5.43;3.78;;;;;;;0.88;80.43;99298.47;2309111;69;20168;-73
2021/01/08 09:01:53;;;;;;;5.26;3.70;;;;;;;0.92;80.32;99296.06;2308091;66;22082;-73
2021/01/08 09:04:59;;;;;;;6.13;4.13;;;;;;;0.92;79.78;99276.47;2307536;69;20369;-73
2021/01/08 09:08:20;;;;;;;4.76;3.61;;;;;;;0.94;79.69;99281.63;2308721;69;20309;-73
2021/01/08 09:11:32;;;;;;;3.97;3.19;;;;;;;0.93;79.51;99285.88;2308440;69;20178;-73
2021/01/08 09:14:38;;;;;;;6.72;4.46;;;;;;;0.95;79.33;99299.56;2307780;69;21297;-73
2021/01/08 09:17:43;;;;;;;5.27;3.56;;;;;;;0.96;79.19;99296.19;2308257;66;21081;-73
2021/01/08 09:20:54;;;;;;;6.41;3.58;;;;;;;0.90;78.69;99298.56;2307875;69;20216;-73
2021/01/08 09:24:00;;;;;;;4.57;3.76;;;;;;;0.93;78.92;99298.66;2307457;69;20574;-73
2021/01/08 09:27:07;;;;;;;6.17;4.17;;;;;;;0.96;78.93;99301.31;2306781;69;20866;-73
2021/01/08 09:30:11;;;;;;;7.40;4.17;;;;;;;0.97;78.86;99305.59;2305264;69;20149;-73
2021/01/08 09:33:13;;;;;;;4.78;4.06;;;;;;;1.00;78.96;99310.81;2307051;69;20178;-73
2021/01/08 09:36:15;;;;;;;5.90;4.17;;;;;;;1.00;78.48;99315.91;2308835;69;20217;-73
2021/01/08 09:39:17;;;;;;;5.46;4.04;;;;;;;1.03;78.37;99313.44;2309091;69;20188;-73
2021/01/08 09:42:19;;;;;;;5.46;4.27;;;;;;;1.06;78.49;99315.22;2309779;69;20645;-73
2021/01/08 09:45:23;;;;;;;7.06;4.69;;;;;;;1.06;78.56;99323.75;2307005;66;20754;-73
2021/01/08 09:48:24;;;;;;;20.34;12.14;;;;;;;0.99;78.07;99326.97;2309038;69;20764;-73
2021/01/08 09:51:30;;;;;;;6.24;5.38;;;;;;;1.06;78.62;99322.91;2308889;69;20746;-73
2021/01/08 09:54:49;;;;;;;8.47;5.84;;;;;;;1.09;78.27;99323.03;2308278;69;20940;-73
2021/01/08 09:57:58;;;;;;;9.83;5.32;;;;;;;1.09;78.02;99323.88;2296372;69;20153;-74
2021/01/08 10:01:00;;;;;;;5.88;4.36;;;;;;;1.16;78.44;99324.94;2292990;67;20963;-73
2021/01/08 10:04:02;;;;;;;5.79;4.47;;;;;;;1.19;77.95;99327.59;2294711;69;20173;-75
2021/01/08 10:07:06;;;;;;;7.71;4.75;;;;;;;1.19;77.66;99323.34;2294787;69;20165;-73
2021/01/08 10:10:10;;;;;;;6.19;4.61;;;;;;;1.25;77.80;99324.34;2294510;69;21188;-73
2021/01/08 10:13:20;;;;;;;7.84;4.45;;;;;;;1.21;77.83;99326.81;2294925;69;20292;-73
2021/01/08 10:16:21;;;;;;;7.72;5.09;;;;;;;1.25;77.77;99332.03;2297016;67;22232;-73
2021/01/08 10:19:23;;;;;;;7.71;4.70;;;;;;;1.24;77.66;99327.72;2302344;69;20194;-73
2021/01/08 10:22:25;;;;;;;7.22;5.51;;;;;;;1.26;77.55;99331.19;2300924;69;20137;-73
2021/01/08 10:25:30;;;;;;;6.46;5.07;;;;;;;1.25;77.21;99330.31;2301513;69;20464;-73
2021/01/08 10:28:53;;;;;;;13.96;7.57;;;;;;;1.26;77.06;99331.19;2301890;69;20271;-74
2021/01/08 10:31:56;;;;;;;8.44;5.96;;;;;;;1.32;77.40;99331.41;2300591;66;22984;-75
2021/01/08 10:34:58;;;;;;;10.95;7.14;;;;;;;1.33;76.78;99333.16;2302186;69;20318;-76
2021/01/08 10:38:00;;;;;;;8.10;5.49;;;;;;;1.33;76.74;99323.78;2301965;69;20306;-75
2021/01/08 10:41:02;;;;;;;7.13;4.95;;;;;;;1.42;77.43;99326.59;2301316;69;21140;-74
2021/01/08 10:44:04;;;;;;;6.36;4.82;;;;;;;1.52;77.42;99323.53;2301610;69;20317;-74
2021/01/08 10:47:06;;;;;;;6.40;5.21;;;;;;;1.58;76.84;99321.97;2301169;67;21349;-74
2021/01/08 10:50:12;;;;;;;5.91;4.63;;;;;;;1.60;76.11;99330.53;2301474;69;20362;-74
2021/01/08 10:53:14;;;;;;;6.89;4.84;;;;;;;1.67;76.23;99322.25;2300853;69;20342;-74
2021/01/08 10:56:25;;;;;;;6.68;4.51;;;;;;;1.73;75.43;99324.97;2305328;69;20576;-73
2021/01/08 10:59:26;;;;;;;7.46;4.68;;;;;;;1.76;75.29;99322.50;2307452;69;21034;-73
2021/01/08 11:02:28;;;;;;;6.80;4.41;;;;;;;1.79;74.92;99314.91;2300871;67;21716;-73
2021/01/08 11:05:30;;;;;;;5.47;4.00;;;;;;;1.88;74.88;99311.75;2299521;69;20898;-73
2021/01/08 11:08:32;;;;;;;6.61;4.88;;;;;;;1.86;74.06;99319.41;2300144;69;20328;-74
2021/01/08 11:11:34;;;;;;;5.40;4.34;;;;;;;1.94;74.77;99320.47;2300655;69;20402;-73
2021/01/08 11:14:36;;;;;;;6.49;5.05;;;;;;;2.02;75.01;99315.59;2299517;69;20326;-73
2021/01/08 11:17:38;;;;;;;6.40;4.76;;;;;;;1.98;74.32;99312.09;2299067;66;22178;-73
2021/01/08 11:20:39;;;;;;;7.06;4.55;;;;;;;1.97;74.72;99312.00;2300103;69;20218;-73
2021/01/08 11:23:41;;;;;;;6.46;4.41;;;;;;;2.01;75.06;99311.31;2300184;69;20294;-73
2021/01/08 11:26:43;;;;;;;6.34;4.35;;;;;;;1.99;74.27;99303.56;2299114;69;20490;-73
2021/01/08 11:29:45;;;;;;;5.36;4.56;;;;;;;2.01;74.12;99298.50;2301968;69;21228;-73
2021/01/08 11:32:47;;;;;;;6.70;4.61;;;;;;;2.03;73.85;99304.53;2306080;66;23632;-73
2021/01/08 11:35:49;;;;;;;11.55;8.88;;;;;;;2.07;74.24;99307.19;2307990;69;20463;-73
2021/01/08 11:38:50;;;;;;;13.52;10.49;;;;;;;2.15;74.84;99296.28;2308952;69;20358;-72
2021/01/08 11:41:56;;;;;;;7.44;5.76;;;;;;;2.12;74.74;99304.75;2308273;68;20322;-73
2021/01/08 11:44:58;;;;;;;6.28;5.43;;;;;;;2.14;74.51;99298.00;2309005;69;20293;-73
2021/01/08 11:47:59;;;;;;;5.68;4.57;;;;;;;2.16;74.07;99288.69;2307711;68;20862;-73
2021/01/08 11:51:01;;;;;;;5.90;4.97;;;;;;;2.21;74.00;99288.78;2308808;69;20316;-73
2021/01/08 11:54:03;;;;;;;6.31;4.65;;;;;;;2.30;73.81;99295.00;2307847;69;20339;-74
2021/01/08 11:57:05;;;;;;;6.18;4.74;;;;;;;2.31;72.83;99290.75;2313655;69;20300;-73
2021/01/08 12:00:07;;;;;;;6.40;4.20;;;;;;;2.38;72.66;99285.84;2315385;69;20612;-73
2021/01/08 12:03:09;;;;;;;5.09;3.88;;;;;;;2.47;72.32;99292.03;2314308;66;21429;-73
2021/01/08 12:06:14;;;;;;;5.65;4.03;;;;;;;2.47;72.21;99287.78;2314877;69;20280;-73
2021/01/08 12:09:16;;;;;;;4.97;4.38;;;;;;;2.53;72.92;99297.34;2315091;69;20295;-73
2021/01/08 12:12:18;;;;;;;6.07;4.05;;;;;;;2.53;72.54;99295.66;2314470;69;20296;-73
2021/01/08 12:15:19;;;;;;;4.90;4.13;;;;;;;2.42;71.76;99292.78;2312710;67;21241;-73
2021/01/08 12:18:21;;;;;;;6.00;4.32;;;;;;;2.35;71.85;99295.16;2314926;69;20315;-73
2021/01/08 12:21:23;;;;;;;5.57;3.94;;;;;;;2.37;72.46;99284.13;2313481;69;20581;-73
2021/01/08 12:24:25;;;;;;;4.30;3.83;;;;;;;2.49;73.06;99288.69;2312716;69;20313;-73
2021/01/08 12:27:26;;;;;;;5.99;4.57;;;;;;;2.53;72.42;99290.53;2313909;69;20848;-73
2021/01/08 12:30:28;;;;;;;12.70;8.54;;;;;;;2.57;72.59;99288.91;2312540;66;31990;-73
2021/01/08 12:33:30;;;;;;;16.73;10.73;;;;;;;2.63;72.52;99294.16;2313947;69;20361;-73
2021/01/08 12:36:33;;;;;;;6.22;4.90;;;;;;;2.60;72.53;99304.34;2315878;69;20360;-73
2021/01/08 12:39:34;;;;;;;6.28;5.10;;;;;;;2.59;72.29;99295.78;2316065;69;20303;-73
2021/01/08 12:42:37;;;;;;;5.31;4.14;;;;;;;2.65;72.72;99295.06;2315578;69;20333;-74
2021/01/08 12:45:38;;;;;;;6.40;4.70;;;;;;;2.69;73.03;99297.78;2314183;66;21846;-73
2021/01/08 12:48:40;;;;;;;5.66;3.92;;;;;;;2.64;72.39;99294.22;2315418;69;20353;-73
2021/01/08 12:51:42;;;;;;;4.78;4.10;;;;;;;2.59;71.78;99290.66;2315045;69;20321;-73
2021/01/08 12:54:43;;;;;;;4.22;3.83;;;;;;;2.51;71.88;99286.16;2313708;69;20307;-73
2021/01/08 12:57:45;;;;;;;6.81;4.55;;;;;;;2.45;72.32;99297.13;2314910;69;20313;-73
2021/01/08 13:00:49;;;;;;;7.94;6.09;;;;;;;2.39;71.92;99292.72;2314963;66;27899;-73
2021/01/08 13:03:51;;;;;;;6.32;4.91;;;;;;;2.36;72.68;99286.66;2316431;69;20330;-73
2021/01/08 13:06:52;;;;;;;6.00;4.41;;;;;;;2.29;72.42;99292.41;2316587;69;20314;-73
2021/01/08 13:09:54;;;;;;;5.82;4.60;;;;;;;2.23;72.94;99292.25;2316232;69;20310;-72
2021/01/08 13:12:56;;;;;;;6.31;4.60;;;;;;;2.20;73.49;99297.31;2316384;69;20297;-73
2021/01/08 13:15:58;;;;;;;5.61;4.07;;;;;;;2.16;73.25;99292.94;2315376;67;21074;-73
2021/01/08 13:19:03;;;;;;;5.06;4.31;;;;;;;2.12;73.79;99297.94;2317313;69;21207;-73
2021/01/08 13:22:04;;;;;;;4.99;4.15;;;;;;;2.12;73.54;99290.25;2316781;69;20686;-73
2021/01/08 13:25:06;;;;;;;4.95;3.95;;;;;;;2.16;73.72;99293.81;2315530;69;20811;-73
2021/01/08 13:28:09;;;;;;;5.81;4.72;;;;;;;2.17;73.03;99281.88;2316497;68;20304;-73
2021/01/08 13:31:11;;;;;;;6.22;4.15;;;;;;;2.12;73.64;99287.69;2315909;67;23097;-73
2021/01/08 13:34:16;;;;;;;5.43;4.09;;;;;;;2.19;73.74;99286.19;2315570;69;20744;-73
2021/01/08 13:37:18;;;;;;;4.57;3.88;;;;;;;2.27;74.01;99284.69;2316005;69;20304;-73
2021/01/08 13:40:20;;;;;;;6.03;4.03;;;;;;;2.29;73.48;99285.59;2315859;69;20335;-73
2021/01/08 13:43:22;;;;;;;4.14;3.74;;;;;;;2.39;73.91;99286.72;2320329;68;20292;-73
2021/01/08 13:46:23;;;;;;;4.41;3.74;;;;;;;2.35;73.03;99298.59;2313989;66;20310;-73
2021/01/08 13:49:25;;;;;;;4.00;3.59;;;;;;;2.35;74.07;99306.28;2316302;69;20284;-73
2021/01/08 13:52:27;;;;;;;5.18;3.59;;;;;;;2.38;74.64;99308.91;2317509;69;20293;-73
2021/01/08 13:55:28;;;;;;;5.59;3.15;;;;;;;2.36;73.81;99314.84;2315675;69;20281;-74
2021/01/08 13:58:30;;;;;;;6.56;3.63;;;;;;;2.27;73.10;99307.75;2316319;69;20332;-72
2021/01/08 14:01:36;;;;;;;4.76;3.85;;;;;;;2.19;73.02;99310.94;2314888;66;20669;-73
2021/01/08 14:04:38;;;;;;;4.63;3.33;;;;;;;2.16;73.45;99308.31;2315656;69;20457;-73
2021/01/08 14:07:39;;;;;;;4.90;3.65;;;;;;;2.14;73.94;99315.91;2316733;69;20303;-73
2021/01/08 14:10:41;;;;;;;7.13;4.66;;;;;;;2.06;73.65;99313.16;2316409;69;20340;-74
2021/01/08 14:13:43;;;;;;;5.30;3.92;;;;;;;2.05;74.40;99313.97;2315840;69;20333;-73
2021/01/08 14:16:44;;;;;;;12.64;8.20;;;;;;;2.00;74.68;99315.56;2314569;67;22820;-72
2021/01/08 14:19:47;;;;;;;8.85;6.31;;;;;;;1.99;75.65;99315.50;2316671;69;20312;-72
2021/01/08 14:22:49;;;;;;;6.21;4.64;;;;;;;1.98;76.17;99319.75;2315268;69;20396;-72
2021/01/08 14:25:51;;;;;;;5.36;4.11;;;;;;;2.00;76.34;99314.69;2315481;69;20476;-73
2021/01/08 14:28:53;;;;;;;4.76;3.80;;;;;;;1.97;75.89;99322.25;2316136;68;20317;-73
2021/01/08 14:31:54;;;;;;;6.11;4.26;;;;;;;1.94;75.47;99315.34;2315428;66;21743;-73
2021/01/08 14:34:56;;;;;;;10.14;6.10;;;;;;;1.97;75.77;99318.00;2316073;69;21286;-73
2021/01/08 14:37:58;;;;;;;5.36;4.01;;;;;;;1.99;76.29;99323.19;2317564;69;20325;-75
2021/01/08 14:41:00;;;;;;;6.31;4.82;;;;;;;2.01;75.78;99326.66;2316003;69;20300;-73